Terminal Aerodrome Forecast
Issued by NWS Sterling, VA

Home | Current Version | Previous Version | Text Only | Print | Product List | Glossary On
Versions: 1 2 3 4 5 6 7 8 9 10 11 12 13 14 15 16 17 18 19 20
356
FTUS41 KLWX 271737
TAFBWI
TAF
KBWI 271737Z 2718/2824 19006KT P6SM SCT050
     FM272000 16010KT P6SM VCTS SCT050CB
     FM280200 18003KT P6SM FEW040=

USA.gov is the U.S. government's official web portal to all federal, state and local government web resources and services.